createdAt,value
2023-03-25T00:01:17.304Z,100119.81
2023-03-25T00:03:19.784Z,100115.88
2023-03-25T00:05:22.191Z,100121.53
2023-03-25T00:07:24.032Z,100122.78
2023-03-25T00:09:25.711Z,100121.34
2023-03-25T00:11:28.761Z,100114.47
2023-03-25T00:13:30.656Z,100119.06
2023-03-25T00:15:32.718Z,100116.78
2023-03-25T00:17:34.442Z,100111.75
2023-03-25T00:19:36.688Z,100099.25
2023-03-25T00:21:38.538Z,100102.19
2023-03-25T00:23:41.343Z,100099.69
2023-03-25T00:25:42.938Z,100100.75
2023-03-25T00:27:46.483Z,100100.09
2023-03-25T00:29:48.732Z,100107.41
2023-03-25T00:31:50.742Z,100105.97
2023-03-25T00:33:52.878Z,100108.69
2023-03-25T00:35:55.319Z,100110.78
2023-03-25T00:37:57.105Z,100099.94
2023-03-25T00:39:58.632Z,100099.09
2023-03-25T00:42:00.290Z,100092.84
2023-03-25T00:44:04.763Z,100092.00
2023-03-25T00:46:06.871Z,100086.56
2023-03-25T00:48:08.903Z,100086.56
2023-03-25T00:50:11.706Z,100081.97
2023-03-25T00:52:13.492Z,100088.25
2023-03-25T00:54:15.323Z,100083.03
2023-03-25T00:56:17.762Z,100090.13
2023-03-25T00:58:19.600Z,100091.78
2023-03-25T01:00:22.509Z,100089.09
2023-03-25T01:02:24.591Z,100088.25
2023-03-25T01:04:26.294Z,100087.41
2023-03-25T01:06:32.186Z,100079.47
2023-03-25T01:08:34.775Z,100082.19
2023-03-25T01:10:36.957Z,100075.13
2023-03-25T01:12:39.196Z,100084.28
2023-03-25T01:14:41.025Z,100075.53
2023-03-25T01:16:44.129Z,100081.78
2023-03-25T01:18:45.780Z,100079.31
2023-03-25T01:20:47.818Z,100073.25
2023-03-25T01:22:49.653Z,100080.34
2023-03-25T01:24:51.268Z,100079.94
2023-03-25T01:26:52.995Z,100078.91
2023-03-25T01:28:55.051Z,100082.66
2023-03-25T01:31:00.711Z,100091.63
2023-03-25T01:33:04.265Z,100085.56
2023-03-25T01:35:06.850Z,100084.78
2023-03-25T01:37:08.948Z,100082.25
2023-03-25T01:39:10.785Z,100071.41
2023-03-25T01:41:12.732Z,100071.59
2023-03-25T01:43:14.586Z,100072.28
2023-03-25T01:45:21.261Z,100078.50
2023-03-25T01:47:23.059Z,100076.03
2023-03-25T01:49:31.488Z,100069.16
2023-03-25T01:51:37.076Z,100082.09
2023-03-25T01:53:42.214Z,100071.69
2023-03-25T01:55:45.223Z,100072.09
2023-03-25T01:57:48.390Z,100070.63
2023-03-25T01:59:52.080Z,100081.72
2023-03-25T02:01:56.274Z,100072.94
2023-03-25T02:03:59.660Z,100069.44
2023-03-25T02:06:07.562Z,100066.09
2023-03-25T02:08:09.360Z,100064.41
2023-03-25T02:10:11.915Z,100062.13
2023-03-25T02:12:13.895Z,100062.97
2023-03-25T02:14:20.210Z,100052.31
2023-03-25T02:16:29.921Z,100048.78
2023-03-25T02:18:46.252Z,100046.28
2023-03-25T02:21:35.718Z,100046.28
2023-03-25T02:24:03.170Z,100047.56
2023-03-25T02:26:39.925Z,100054.84
2023-03-25T02:28:47.492Z,100055.69
2023-03-25T02:31:09.088Z,100051.34
2023-03-25T02:33:37.448Z,100054.03
2023-03-25T02:35:53.637Z,100069.69
2023-03-25T02:40:46.337Z,100051.38
2023-03-25T02:42:53.157Z,100052.16
2023-03-25T02:45:00.215Z,100058.84
2023-03-25T02:47:05.943Z,100058.41
2023-03-25T02:49:11.894Z,100064.47
2023-03-25T02:51:21.646Z,100041.72
2023-03-25T02:53:27.982Z,100037.09
2023-03-25T02:55:31.304Z,100037.94
2023-03-25T02:57:38.860Z,100035.22
2023-03-25T02:59:42.417Z,100029.59
2023-03-25T03:01:44.015Z,100029.59
2023-03-25T03:03:47.813Z,100031.28
2023-03-25T03:05:52.609Z,100034.84
2023-03-25T03:08:08.230Z,100036.47
2023-03-25T03:10:20.492Z,100040.88
2023-03-25T03:12:41.710Z,100032.53
2023-03-25T03:15:00.566Z,100023.31
2023-03-25T03:17:14.057Z,100027.91
2023-03-25T03:19:28.891Z,100024.38
2023-03-25T03:21:39.686Z,100026.25
2023-03-25T03:23:51.849Z,100014.56
2023-03-25T03:25:56.401Z,100012.91
2023-03-25T03:28:05.648Z,100011.03
2023-03-25T03:30:13.546Z,100014.56
2023-03-25T03:32:21.512Z,100012.91
2023-03-25T03:34:30.107Z,100013.94
2023-03-25T03:36:41.996Z,100009.34
2023-03-25T03:38:49.122Z,100009.34
2023-03-25T03:40:55.893Z,100011.22
2023-03-25T03:43:03.484Z,100021.28
2023-03-25T03:45:10.456Z,100013.13
2023-03-25T03:47:15.435Z,100022.91
2023-03-25T03:49:21.086Z,100025.63
2023-03-25T03:51:30.212Z,100022.91
2023-03-25T03:53:36.884Z,100024.59
2023-03-25T03:55:43.701Z,100020.00
2023-03-25T03:57:49.538Z,100020.00
2023-03-25T03:59:58.872Z,100012.69
2023-03-25T04:02:05.125Z,100010.81
2023-03-25T04:04:10.980Z,100005.16
2023-03-25T04:06:21.982Z,100004.34
2023-03-25T04:08:31.629Z,100009.75
2023-03-25T04:10:40.914Z,100004.97
2023-03-25T04:12:48.268Z,99998.47
2023-03-25T04:14:50.017Z,100008.28
2023-03-25T04:16:55.174Z,100001.19
2023-03-25T04:18:56.813Z,100004.09
2023-03-25T04:20:58.707Z,100005.75
2023-03-25T04:23:02.937Z,100013.91
2023-03-25T04:25:06.152Z,100007.63
2023-03-25T04:27:09.265Z,100009.31
2023-03-25T04:29:11.882Z,100005.53
2023-03-25T04:31:15.246Z,100010.56
2023-03-25T04:33:18.296Z,100005.94
2023-03-25T04:35:20.930Z,99999.47
2023-03-25T04:40:22.904Z,100004.69
2023-03-25T04:42:24.955Z,100003.84
2023-03-25T04:44:26.809Z,100002.81
2023-03-25T04:46:28.921Z,99998.22
2023-03-25T04:48:35.884Z,99995.72
2023-03-25T04:50:38.114Z,100001.75
2023-03-25T04:52:39.875Z,99991.72
2023-03-25T04:54:42.064Z,99988.81
2023-03-25T04:56:43.898Z,99992.13
2023-03-25T04:58:46.631Z,99990.47
2023-03-25T05:00:51.988Z,99991.91
2023-03-25T05:02:57.635Z,99987.75
2023-03-25T05:05:00.874Z,99988.38
2023-03-25T05:07:02.710Z,99983.16
2023-03-25T05:09:05.876Z,99983.16
2023-03-25T05:11:09.696Z,99984.81
2023-03-25T05:13:11.669Z,99983.16
2023-03-25T05:15:14.264Z,99980.44
2023-03-25T05:17:16.059Z,99978.56
2023-03-25T05:19:18.337Z,99969.56
2023-03-25T05:21:21.921Z,99978.78
2023-03-25T05:23:23.644Z,99977.72
2023-03-25T05:25:26.554Z,99973.38
2023-03-25T05:27:29.291Z,99977.50
2023-03-25T05:29:32.581Z,99972.28
2023-03-25T05:31:35.526Z,99967.69
2023-03-25T05:33:49.457Z,99979.38
2023-03-25T05:35:53.024Z,99970.41
2023-03-25T05:37:59.525Z,99977.72
2023-03-25T05:40:02.077Z,99978.56
2023-03-25T05:42:05.892Z,99965.22
2023-03-25T05:44:09.470Z,99977.50
2023-03-25T05:46:11.526Z,99975.63
2023-03-25T05:48:15.880Z,99974.81
2023-03-25T05:50:17.958Z,99975.63
2023-03-25T05:52:20.394Z,99974.19
2023-03-25T05:54:23.632Z,99979.19
2023-03-25T05:56:25.552Z,99967.50
2023-03-25T05:58:27.386Z,99977.31
2023-03-25T06:00:29.654Z,99974.34
2023-03-25T06:02:32.001Z,99976.25
2023-03-25T06:04:35.709Z,99977.06
2023-03-25T06:06:37.377Z,99975.59
2023-03-25T06:08:39.631Z,99982.69
2023-03-25T06:10:43.349Z,99989.56
2023-03-25T06:12:45.921Z,99978.94
2023-03-25T06:14:48.748Z,99982.66
2023-03-25T06:16:50.505Z,99982.84
2023-03-25T06:18:52.527Z,99978.00
2023-03-25T06:20:54.618Z,99974.00
2023-03-25T06:22:56.661Z,99970.69
2023-03-25T06:24:58.680Z,99977.56
2023-03-25T06:27:01.999Z,99977.13
2023-03-25T06:29:04.033Z,99977.53
2023-03-25T06:31:11.899Z,99986.72
2023-03-25T06:33:14.131Z,99973.75
2023-03-25T06:35:36.115Z,99985.22
2023-03-25T06:37:39.208Z,99972.50
2023-03-25T06:39:41.228Z,99982.06
2023-03-25T06:41:43.023Z,99986.84
2023-03-25T06:43:47.290Z,99986.03
2023-03-25T06:45:51.173Z,99985.97
2023-03-25T06:47:53.005Z,99984.91
2023-03-25T06:49:56.105Z,99979.88
2023-03-25T06:51:57.868Z,99979.03
2023-03-25T06:54:00.356Z,99989.00
2023-03-25T06:56:02.279Z,99987.06
2023-03-25T06:58:04.908Z,99978.88
2023-03-25T07:00:11.661Z,99983.34
2023-03-25T07:02:15.915Z,99978.56
2023-03-25T07:04:19.143Z,99985.81
2023-03-25T07:06:23.289Z,99975.09
2023-03-25T07:08:25.087Z,99980.09
2023-03-25T07:10:28.259Z,99978.78
2023-03-25T07:12:30.008Z,99981.06
2023-03-25T07:14:31.819Z,99978.72
2023-03-25T07:16:36.624Z,99988.34
2023-03-25T07:18:43.235Z,99997.09
2023-03-25T07:20:46.717Z,99991.00
2023-03-25T07:22:48.848Z,99986.78
2023-03-25T07:24:51.710Z,99992.91
2023-03-25T07:26:54.285Z,99991.47
2023-03-25T07:28:55.990Z,99998.72
2023-03-25T07:30:58.455Z,99987.53
2023-03-25T07:33:01.937Z,99994.94
2023-03-25T07:35:04.169Z,99994.00
2023-03-25T07:37:06.019Z,99998.56
2023-03-25T07:39:10.728Z,99994.31
2023-03-25T07:41:13.548Z,99990.50
2023-03-25T07:43:15.741Z,99992.56
2023-03-25T07:45:17.668Z,99994.22
2023-03-25T07:47:19.416Z,99987.47
2023-03-25T07:49:24.949Z,99992.94
2023-03-25T07:51:27.318Z,99994.81
2023-03-25T07:53:36.462Z,99991.88
2023-03-25T07:55:48.913Z,99985.00
2023-03-25T07:57:58.468Z,99992.94
2023-03-25T08:02:43.523Z,100001.56
2023-03-25T08:07:39.781Z,99998.63
2023-03-25T08:09:46.738Z,100003.22
2023-03-25T08:14:26.831Z,100007.16
2023-03-25T08:16:30.209Z,100004.44
2023-03-25T08:18:48.476Z,100005.63
2023-03-25T08:21:07.967Z,100009.78
2023-03-25T08:23:25.914Z,99996.53
2023-03-25T08:25:27.862Z,99995.69
2023-03-25T08:27:29.494Z,100006.75
2023-03-25T08:29:31.735Z,100009.59
2023-03-25T08:31:33.743Z,100009.50
2023-03-25T08:33:35.582Z,100004.44
2023-03-25T08:35:38.915Z,100010.59
2023-03-25T08:37:42.338Z,100008.00
2023-03-25T08:39:44.405Z,99999.38
2023-03-25T08:41:46.450Z,100000.56
2023-03-25T08:43:49.969Z,100001.94
2023-03-25T08:45:52.583Z,99991.75
2023-03-25T08:47:55.035Z,99994.84
2023-03-25T08:49:59.915Z,99991.41
2023-03-25T08:52:07.108Z,99992.34
2023-03-25T08:54:14.246Z,100001.72
2023-03-25T08:56:25.376Z,100001.03
2023-03-25T08:58:30.386Z,100004.94
2023-03-25T09:00:32.483Z,99994.03
2023-03-25T09:02:35.674Z,99995.44
2023-03-25T09:04:37.888Z,99997.94
2023-03-25T09:06:47.502Z,100002.94
2023-03-25T09:09:02.514Z,100002.09
2023-03-25T09:11:06.359Z,99993.91
2023-03-25T09:13:08.583Z,99995.56
2023-03-25T09:15:12.720Z,100003.97
2023-03-25T09:17:16.330Z,99988.69
2023-03-25T09:19:21.203Z,99985.94
2023-03-25T09:21:25.512Z,99994.75
2023-03-25T09:23:27.924Z,99992.84
2023-03-25T09:25:30.085Z,99998.66
2023-03-25T09:27:33.429Z,99991.31
2023-03-25T09:29:35.491Z,99995.31
2023-03-25T09:31:41.828Z,99994.25
2023-03-25T09:33:44.396Z,99995.31
2023-03-25T09:35:46.618Z,100004.94
2023-03-25T09:37:52.130Z,100011.19
2023-03-25T09:39:57.181Z,100009.56
2023-03-25T09:42:27.228Z,100007.19
2023-03-25T09:44:35.890Z,100006.13
2023-03-25T09:46:38.868Z,100013.22
2023-03-25T09:48:45.032Z,100005.03
2023-03-25T09:50:48.437Z,100011.94
2023-03-25T09:52:55.778Z,100013.09
2023-03-25T09:55:03.257Z,100010.84
2023-03-25T09:57:14.814Z,100005.03
2023-03-25T09:59:20.221Z,100009.19
2023-03-25T10:01:35.797Z,100009.66
2023-03-25T10:03:49.022Z,99994.25
2023-03-25T10:06:12.026Z,99996.91
2023-03-25T10:08:25.460Z,100005.91
2023-03-25T10:10:32.787Z,99999.97
2023-03-25T10:12:42.684Z,99996.03
2023-03-25T10:14:59.559Z,100001.63
2023-03-25T10:17:17.570Z,99997.06
2023-03-25T10:19:40.159Z,99994.69
2023-03-25T10:21:48.128Z,99995.50
2023-03-25T10:24:02.894Z,99998.84
2023-03-25T10:26:16.721Z,99994.44
2023-03-25T10:28:20.534Z,99999.34
2023-03-25T10:30:25.133Z,99993.03
2023-03-25T10:32:36.980Z,99996.50
2023-03-25T10:34:44.366Z,100001.13
2023-03-25T10:36:49.744Z,100004.13
2023-03-25T10:38:54.076Z,100001.84
2023-03-25T10:41:05.340Z,100005.56
2023-03-25T10:43:22.089Z,100011.25
2023-03-25T10:45:33.135Z,100016.13
2023-03-25T10:47:44.849Z,100029.66
2023-03-25T10:49:51.782Z,100027.28
2023-03-25T10:51:54.543Z,100026.84
2023-03-25T10:53:57.968Z,100023.41
2023-03-25T10:56:13.133Z,100013.94
2023-03-25T10:58:20.754Z,100015.13
2023-03-25T11:00:26.560Z,100016.56
2023-03-25T11:02:33.456Z,100018.59
2023-03-25T11:04:56.754Z,100038.72
2023-03-25T11:07:00.925Z,100030.44
2023-03-25T11:09:24.289Z,100024.63
2023-03-25T11:14:17.965Z,100013.19
2023-03-25T11:18:50.026Z,100004.19
2023-03-25T11:23:36.327Z,99989.81
2023-03-25T11:25:42.101Z,99991.88
2023-03-25T11:30:26.538Z,99980.41
2023-03-25T11:32:35.179Z,99982.06
2023-03-25T11:34:38.303Z,99974.94
2023-03-25T11:36:48.997Z,99983.47
2023-03-25T11:38:58.635Z,99983.16
2023-03-25T11:41:00.375Z,99991.59
2023-03-25T11:43:02.386Z,99984.13
2023-03-25T11:45:05.474Z,99993.91
2023-03-25T11:47:10.684Z,100001.75
2023-03-25T11:49:18.739Z,99992.28
2023-03-25T11:51:22.823Z,99982.09
2023-03-25T11:53:28.268Z,99977.06
2023-03-25T11:55:32.896Z,99975.81
2023-03-25T11:57:40.070Z,99961.56
2023-03-25T11:59:45.865Z,99963.16
2023-03-25T12:01:49.512Z,99968.97
2023-03-25T12:03:51.263Z,99962.00
2023-03-25T12:06:03.847Z,99962.34
2023-03-25T12:08:13.130Z,99955.00
2023-03-25T12:10:28.271Z,99960.16
2023-03-25T12:12:38.928Z,99954.78
2023-03-25T12:14:55.839Z,99944.31
2023-03-25T12:17:05.993Z,99945.88
2023-03-25T12:19:20.775Z,99942.97
2023-03-25T12:21:39.408Z,99946.94
2023-03-25T12:23:52.043Z,99943.44
2023-03-25T12:26:06.959Z,99931.75
2023-03-25T12:28:36.946Z,99931.91
2023-03-25T12:30:53.117Z,99931.22
2023-03-25T12:33:03.903Z,99916.84
2023-03-25T12:35:28.886Z,99923.22
2023-03-25T12:37:39.458Z,99937.16
2023-03-25T12:40:03.384Z,99929.25
2023-03-25T12:42:18.344Z,99927.03
2023-03-25T12:44:34.691Z,99924.28
2023-03-25T12:47:04.233Z,99929.16
2023-03-25T12:49:26.917Z,99925.88
2023-03-25T12:51:42.384Z,99933.25
2023-03-25T12:53:57.885Z,99924.16
2023-03-25T12:56:13.400Z,99917.34
2023-03-25T12:58:36.258Z,99927.47
2023-03-25T13:00:47.563Z,99925.56
2023-03-25T13:03:27.276Z,99930.19
2023-03-25T13:05:37.907Z,99931.53
2023-03-25T13:07:44.860Z,99928.50
2023-03-25T13:09:57.500Z,99992.09
2023-03-25T13:12:03.819Z,99999.06
2023-03-25T13:14:15.341Z,100030.50
2023-03-25T13:16:20.599Z,100010.44
2023-03-25T13:18:27.782Z,100028.66
2023-03-25T13:20:34.754Z,100031.91
2023-03-25T13:22:40.745Z,100043.25
2023-03-25T13:24:47.336Z,100044.13
2023-03-25T13:26:51.858Z,100032.66
2023-03-25T13:28:57.140Z,100036.38
2023-03-25T13:31:02.673Z,100029.47
2023-03-25T13:33:11.594Z,100033.50
2023-03-25T13:35:17.972Z,100026.41
2023-03-25T13:37:24.457Z,100021.50
2023-03-25T13:39:32.603Z,100013.94
2023-03-25T13:41:39.598Z,100016.16
2023-03-25T13:43:49.512Z,100008.91
2023-03-25T13:45:58.480Z,100008.75
2023-03-25T13:48:11.891Z,100006.50
2023-03-25T13:50:20.522Z,100005.31
2023-03-25T13:52:26.536Z,100002.22
2023-03-25T13:54:35.894Z,100002.22
2023-03-25T13:57:01.745Z,99997.38
2023-03-25T13:59:28.590Z,99993.72
2023-03-25T14:01:48.621Z,99996.81
2023-03-25T14:04:08.831Z,99984.06
2023-03-25T14:06:53.122Z,99991.16
2023-03-25T14:09:30.075Z,99974.81
2023-03-25T14:11:37.767Z,99983.97
2023-03-25T14:13:43.929Z,99976.97
2023-03-25T14:15:55.487Z,99961.53
2023-03-25T14:17:57.867Z,99971.47
2023-03-25T14:20:04.521Z,99973.38
2023-03-25T14:22:10.625Z,99967.06
2023-03-25T14:24:16.052Z,99969.19
2023-03-25T14:26:19.371Z,99971.56
2023-03-25T14:28:33.856Z,99973.16
2023-03-25T14:30:35.826Z,99973.16
2023-03-25T14:32:39.967Z,99968.72
2023-03-25T14:34:42.824Z,99972.97
2023-03-25T14:37:12.019Z,99956.22
2023-03-25T14:39:39.080Z,99960.63
2023-03-25T14:42:00.053Z,99965.47
2023-03-25T14:44:17.441Z,99960.16
2023-03-25T14:46:22.582Z,99968.50
2023-03-25T14:48:33.868Z,99965.44
2023-03-25T14:50:36.206Z,99967.22
2023-03-25T14:52:41.472Z,99977.31
2023-03-25T14:54:44.082Z,99971.50
2023-03-25T14:56:52.837Z,99974.34
2023-03-25T14:59:00.996Z,99970.88
2023-03-25T15:01:06.530Z,99970.41
2023-03-25T15:03:11.606Z,99974.06
2023-03-25T15:05:19.180Z,99966.22
2023-03-25T15:07:41.026Z,99965.72
2023-03-25T15:09:51.376Z,99957.78
2023-03-25T15:11:58.794Z,99964.56
2023-03-25T15:14:06.579Z,99961.50
2023-03-25T15:16:18.755Z,99963.63
2023-03-25T15:18:54.484Z,99966.84
2023-03-25T15:21:03.346Z,99968.66
2023-03-25T15:23:36.321Z,99977.31
2023-03-25T15:25:38.024Z,99968.19
2023-03-25T15:28:00.257Z,99962.63
2023-03-25T15:30:14.357Z,99959.31
2023-03-25T15:32:39.733Z,99963.59
2023-03-25T15:35:18.221Z,99956.47
2023-03-25T15:37:47.169Z,99970.03
2023-03-25T15:40:04.726Z,99989.25
2023-03-25T15:42:27.593Z,99997.91
2023-03-25T15:45:05.088Z,99987.72
2023-03-25T15:47:25.192Z,99993.28
2023-03-25T15:49:41.619Z,99984.66
2023-03-25T15:52:04.130Z,99980.97
2023-03-25T15:54:28.069Z,99983.84
2023-03-25T15:56:31.876Z,99984.75
2023-03-25T15:58:40.026Z,99983.34
2023-03-25T16:00:46.420Z,99982.78
2023-03-25T16:02:55.090Z,99978.84
2023-03-25T16:04:57.539Z,99981.22
2023-03-25T16:07:01.661Z,99983.34
2023-03-25T16:09:03.953Z,99977.31
2023-03-25T16:11:14.567Z,99978.38
2023-03-25T16:13:19.042Z,99982.41
2023-03-25T16:15:27.280Z,99983.47
2023-03-25T16:17:34.304Z,99980.38
2023-03-25T16:19:40.725Z,99981.22
2023-03-25T16:21:42.547Z,99982.53
2023-03-25T16:23:44.253Z,99978.34
2023-03-25T16:25:49.056Z,99975.88
2023-03-25T16:27:55.190Z,99972.53
2023-03-25T16:29:57.195Z,99978.25
2023-03-25T16:32:01.140Z,99975.75
2023-03-25T16:34:03.111Z,99978.91
2023-03-25T16:36:14.601Z,99964.47
2023-03-25T16:38:20.085Z,99978.09
2023-03-25T16:40:27.275Z,99967.66
2023-03-25T16:42:31.843Z,99973.59
2023-03-25T16:44:34.627Z,99968.34
2023-03-25T16:46:36.748Z,99966.94
2023-03-25T16:48:41.567Z,99970.13
2023-03-25T16:50:45.441Z,99968.69
2023-03-25T16:52:50.826Z,99969.16
2023-03-25T16:55:28.317Z,99958.28
2023-03-25T16:57:34.204Z,99958.38
2023-03-25T16:59:38.049Z,99960.97
2023-03-25T17:01:42.639Z,99963.31
2023-03-25T17:03:46.713Z,99963.81
2023-03-25T17:05:56.117Z,99958.00
2023-03-25T17:08:01.767Z,99955.94
2023-03-25T17:10:04.748Z,99951.19
2023-03-25T17:12:10.416Z,99945.38
2023-03-25T17:14:18.688Z,99941.47
2023-03-25T17:16:22.305Z,99939.22
2023-03-25T17:18:28.936Z,99927.13
2023-03-25T17:20:36.517Z,99940.16
2023-03-25T17:22:39.697Z,99933.28
2023-03-25T17:24:49.398Z,99928.28
2023-03-25T17:26:56.522Z,99935.88
2023-03-25T17:29:00.336Z,99927.34
2023-03-25T17:31:18.091Z,99942.00
2023-03-25T17:33:29.648Z,99933.72
2023-03-25T17:35:32.206Z,99935.44
2023-03-25T17:37:34.122Z,99935.06
2023-03-25T17:39:35.806Z,99949.16
2023-03-25T17:41:40.093Z,99946.28
2023-03-25T17:43:44.324Z,99950.50
2023-03-25T17:45:47.162Z,99957.25
2023-03-25T17:47:48.911Z,99951.91
2023-03-25T17:49:52.275Z,99956.97
2023-03-25T17:51:53.935Z,99967.22
2023-03-25T17:53:57.025Z,99965.78
2023-03-25T17:56:00.643Z,99963.75
2023-03-25T17:58:03.775Z,99974.25
2023-03-25T18:00:08.825Z,99972.81
2023-03-25T18:02:12.021Z,99971.63
2023-03-25T18:04:15.491Z,99986.25
2023-03-25T18:06:17.270Z,99982.31
2023-03-25T18:08:20.571Z,99980.06
2023-03-25T18:10:24.788Z,99977.59
2023-03-25T18:12:26.429Z,99979.69
2023-03-25T18:14:29.844Z,99988.88
2023-03-25T18:16:31.745Z,99984.75
2023-03-25T18:18:33.436Z,99974.91
2023-03-25T18:20:37.598Z,99976.00
2023-03-25T18:22:39.231Z,99971.59
2023-03-25T18:24:40.977Z,99978.06
2023-03-25T18:26:43.593Z,99981.81
2023-03-25T18:28:45.867Z,99972.25
2023-03-25T18:30:52.274Z,99972.03
2023-03-25T18:32:54.422Z,99971.41
2023-03-25T18:34:56.285Z,99971.66
2023-03-25T18:36:58.094Z,99965.38
2023-03-25T18:39:00.110Z,99969.13
2023-03-25T18:41:02.008Z,99964.75
2023-03-25T18:43:03.686Z,99966.63
2023-03-25T18:45:06.159Z,99963.09
2023-03-25T18:47:10.928Z,99971.47
2023-03-25T18:49:14.892Z,99967.09
2023-03-25T18:51:16.811Z,99962.72
2023-03-25T18:53:19.533Z,99956.47
2023-03-25T18:55:21.377Z,99953.97
2023-03-25T18:57:22.993Z,99961.28
2023-03-25T18:59:24.825Z,99964.81
2023-03-25T19:01:26.692Z,99971.31
2023-03-25T19:03:30.400Z,99971.53
2023-03-25T19:05:32.807Z,99977.19
2023-03-25T19:07:34.692Z,99972.00
2023-03-25T19:09:36.540Z,99968.44
2023-03-25T19:11:38.137Z,99973.25
2023-03-25T19:13:39.900Z,99965.34
2023-03-25T19:15:42.663Z,99968.28
2023-03-25T19:17:46.018Z,99970.16
2023-03-25T19:19:49.144Z,99968.72
2023-03-25T19:21:50.953Z,99958.53
2023-03-25T19:23:53.323Z,99956.84
2023-03-25T19:25:55.385Z,99956.03
2023-03-25T19:27:56.936Z,99959.19
2023-03-25T19:29:59.082Z,99954.00
2023-03-25T19:32:00.907Z,99959.88
2023-03-25T19:34:02.570Z,99951.09
2023-03-25T19:36:06.344Z,99953.81
2023-03-25T19:38:08.577Z,99952.38
2023-03-25T19:40:11.702Z,99947.16
2023-03-25T19:42:13.768Z,99951.16
2023-03-25T19:44:15.404Z,99945.09
2023-03-25T19:46:17.279Z,99948.91
2023-03-25T19:48:18.862Z,99949.09
2023-03-25T19:50:23.239Z,99944.13
2023-03-25T19:52:26.417Z,99952.47
2023-03-25T19:54:28.061Z,99941.03
2023-03-25T19:56:29.737Z,99942.06
2023-03-25T19:58:31.582Z,99938.13
2023-03-25T20:00:33.438Z,99933.78
2023-03-25T20:02:35.357Z,99935.03
2023-03-25T20:04:37.621Z,99929.84
2023-03-25T20:06:39.337Z,99936.31
2023-03-25T20:08:42.536Z,99930.25
2023-03-25T20:10:44.382Z,99928.63
2023-03-25T20:12:46.512Z,99925.06
2023-03-25T20:14:48.160Z,99930.69
2023-03-25T20:16:50.150Z,99923.84
2023-03-25T20:18:51.791Z,99926.16
2023-03-25T20:20:53.428Z,99924.50
2023-03-25T20:22:55.552Z,99923.91
2023-03-25T20:24:58.692Z,99927.66
2023-03-25T20:27:00.356Z,99931.41
2023-03-25T20:29:02.205Z,99928.09
2023-03-25T20:31:13.950Z,99931.66
2023-03-25T20:33:15.559Z,99929.16
2023-03-25T20:35:19.171Z,99925.00
2023-03-25T20:37:20.792Z,99931.47
2023-03-25T20:39:22.486Z,99925.22
2023-03-25T20:41:26.009Z,99928.16
2023-03-25T20:43:27.772Z,99931.06
2023-03-25T20:45:29.749Z,99930.03
2023-03-25T20:47:31.769Z,99935.66
2023-03-25T20:49:33.399Z,99930.69
2023-03-25T20:51:35.246Z,99924.44
2023-03-25T20:53:37.066Z,99930.91
2023-03-25T20:55:38.708Z,99936.31
2023-03-25T20:57:43.550Z,99927.38
2023-03-25T20:59:45.231Z,99922.16
2023-03-25T21:01:48.427Z,99922.16
2023-03-25T21:03:50.341Z,99928.63
2023-03-25T21:05:56.300Z,99918.84
2023-03-25T21:07:58.166Z,99913.81
2023-03-25T21:10:00.128Z,99921.97
2023-03-25T21:12:01.861Z,99913.00
2023-03-25T21:14:05.560Z,99911.56
2023-03-25T21:16:08.138Z,99914.28
2023-03-25T21:18:10.415Z,99908.25
2023-03-25T21:20:12.588Z,99907.41
2023-03-25T21:22:14.410Z,99905.75
2023-03-25T21:24:16.051Z,99907.63
2023-03-25T21:26:18.111Z,99911.41
2023-03-25T21:28:19.969Z,99914.13
2023-03-25T21:30:23.360Z,99908.91
2023-03-25T21:32:25.015Z,99907.03
2023-03-25T21:34:26.693Z,99905.34
2023-03-25T21:36:29.744Z,99909.09
2023-03-25T21:38:31.604Z,99902.84
2023-03-25T21:40:39.898Z,99896.63
2023-03-25T21:42:43.227Z,99900.38
2023-03-25T21:44:44.842Z,99897.84
2023-03-25T21:46:48.735Z,99907.66
2023-03-25T21:48:56.757Z,99897.84
2023-03-25T21:50:58.433Z,99893.50
2023-03-25T21:53:00.774Z,99898.09
2023-03-25T21:55:02.644Z,99899.97
2023-03-25T21:57:04.417Z,99898.09
2023-03-25T21:59:06.555Z,99892.66
2023-03-25T22:01:10.915Z,99893.72
2023-03-25T22:03:14.143Z,99892.88
2023-03-25T22:05:17.083Z,99885.78
2023-03-25T22:07:18.697Z,99888.50
2023-03-25T22:09:20.447Z,99887.69
2023-03-25T22:11:24.357Z,99895.00
2023-03-25T22:13:26.251Z,99887.69
2023-03-25T22:15:28.018Z,99890.41
2023-03-25T22:17:29.923Z,99886.84
2023-03-25T22:19:33.628Z,99888.94
2023-03-25T22:21:36.493Z,99888.94
2023-03-25T22:23:38.953Z,99886.22
2023-03-25T22:25:40.790Z,99893.75
2023-03-25T22:27:42.688Z,99894.34
2023-03-25T22:29:44.672Z,99888.34
2023-03-25T22:31:46.432Z,99888.53
2023-03-25T22:33:48.336Z,99892.09
2023-03-25T22:35:51.484Z,99893.97
2023-03-25T22:37:53.115Z,99891.50
2023-03-25T22:39:54.996Z,99895.00
2023-03-25T22:41:56.625Z,99894.19
2023-03-25T22:43:58.945Z,99893.38
2023-03-25T22:46:02.809Z,99890.66
2023-03-25T22:48:05.032Z,99895.25
2023-03-25T22:50:07.810Z,99888.16
2023-03-25T22:52:10.904Z,99888.97
2023-03-25T22:54:12.554Z,99897.97
2023-03-25T22:56:14.538Z,99897.13
2023-03-25T22:58:16.073Z,99888.97
2023-03-25T23:00:17.885Z,99898.78
2023-03-25T23:02:19.740Z,99892.53
2023-03-25T23:04:21.424Z,99906.09
2023-03-25T23:06:24.863Z,99893.56
2023-03-25T23:08:30.133Z,99891.69
2023-03-25T23:10:32.091Z,99899.22
2023-03-25T23:12:33.746Z,99901.09
2023-03-25T23:14:35.533Z,99903.81
2023-03-25T23:16:37.731Z,99901.94
2023-03-25T23:18:39.730Z,99904.66
2023-03-25T23:20:41.814Z,99897.56
2023-03-25T23:22:43.443Z,99903.81
2023-03-25T23:24:46.796Z,99901.09
2023-03-25T23:26:48.472Z,99902.97
2023-03-25T23:28:51.054Z,99903.19
2023-03-25T23:30:52.922Z,99892.34
2023-03-25T23:32:54.968Z,99904.03
2023-03-25T23:34:56.796Z,99909.25
2023-03-25T23:36:58.386Z,99904.84
2023-03-25T23:39:00.437Z,99902.16
2023-03-25T23:41:05.946Z,99906.75
2023-03-25T23:43:07.502Z,99911.13
2023-03-25T23:45:10.521Z,99914.88
2023-03-25T23:47:12.568Z,99912.16
2023-03-25T23:49:14.646Z,99907.56
2023-03-25T23:51:19.569Z,99920.09
2023-03-25T23:53:21.717Z,99919.25
2023-03-25T23:55:23.594Z,99911.31
2023-03-25T23:57:27.285Z,99913.19
2023-03-25T23:59:29.079Z,99922.16
